Time;durP1;ratioP1;P1;durP2;ratioP2;P2;SDS_P1;SDS_P2;PMS_P1;PMS_P2;Temp;Humidity;BMP_temperature;BMP_pressure;BME280_temperature;BME280_humidity;BME280_pressure;Samples;Min_cycle;Max_cycle;Signal;HPM_P1;HPM_P2
2022/06/01 00:01:03;;;;;;;1.20;1.20;;;;;;;13.13;51.82;101035.28;4935540;28;96986;-86
2022/06/01 00:03:31;;;;;;;1.27;1.17;;;;;;;13.04;51.65;101029.97;4933208;28;97205;-84
2022/06/01 00:05:57;;;;;;;1.40;1.30;;;;;;;13.02;51.80;101048.31;4939594;28;97720;-84
2022/06/01 00:08:23;;;;;;;1.00;0.90;;;;;;;12.97;52.13;101027.72;4934179;28;98724;-84
2022/06/01 00:10:49;;;;;;;1.30;1.20;;;;;;;12.95;52.22;101032.22;4936788;28;97592;-84
2022/06/01 00:13:15;;;;;;;1.20;1.10;;;;;;;12.94;52.21;101036.22;4940167;28;96674;-84
2022/06/01 00:15:40;;;;;;;1.50;1.40;;;;;;;12.89;52.16;101037.00;4942854;28;97579;-84
2022/06/01 00:18:06;;;;;;;1.17;1.17;;;;;;;12.83;52.35;101031.44;4944781;28;98558;-85
2022/06/01 00:20:31;;;;;;;1.27;1.00;;;;;;;12.87;52.22;101022.91;4942383;28;97060;-84
2022/06/01 00:22:57;;;;;;;1.20;1.20;;;;;;;12.83;52.36;101036.97;4930920;28;96815;-85
2022/06/01 00:25:24;;;;;;;1.97;1.10;;;;;;;12.78;52.24;101024.66;4944971;28;99601;-84
2022/06/01 00:27:50;;;;;;;1.90;1.50;;;;;;;12.76;52.41;101038.19;4939109;28;102285;-84
2022/06/01 00:30:17;;;;;;;4.60;1.10;;;;;;;12.75;52.44;101030.41;4944692;28;97153;-84
2022/06/01 00:32:43;;;;;;;1.73;1.30;;;;;;;12.72;52.29;101021.13;4956262;28;97189;-84
2022/06/01 00:35:11;;;;;;;1.10;1.10;;;;;;;12.68;52.49;101039.19;4939783;28;98741;-84
2022/06/01 00:37:36;;;;;;;1.53;1.43;;;;;;;12.60;52.34;101021.59;4945051;28;97682;-84
2022/06/01 00:40:04;;;;;;;1.97;1.40;;;;;;;12.57;52.57;101015.06;4939818;28;97030;-84
2022/06/01 00:42:31;;;;;;;1.20;1.20;;;;;;;12.49;52.72;101010.50;4939123;28;97080;-84
2022/06/01 00:44:59;;;;;;;1.43;1.30;;;;;;;12.41;52.56;101015.75;4942304;28;100134;-84
2022/06/01 00:47:27;;;;;;;1.40;1.30;;;;;;;12.36;52.72;101018.50;4938360;28;97393;-84
2022/06/01 00:50:00;;;;;;;1.63;1.10;;;;;;;12.29;53.12;101005.91;4941683;28;98488;-85
2022/06/01 00:52:37;;;;;;;1.17;1.13;;;;;;;12.25;53.03;101013.69;4947815;28;96844;-84
2022/06/01 00:55:05;;;;;;;1.10;1.10;;;;;;;12.24;52.93;101003.13;4949736;28;97945;-83
2022/06/01 00:57:32;;;;;;;1.73;1.30;;;;;;;12.23;53.05;101002.34;4944281;28;99786;-85
2022/06/01 01:00:01;;;;;;;1.40;1.30;;;;;;;12.26;53.09;101006.91;4938017;28;97906;-85
2022/06/01 01:02:29;;;;;;;1.40;1.30;;;;;;;12.27;53.03;100991.88;4939006;28;97385;-86
2022/06/01 01:04:54;;;;;;;1.40;1.30;;;;;;;12.31;53.14;100995.13;4944993;28;98399;-84
2022/06/01 01:07:20;;;;;;;1.73;1.13;;;;;;;12.32;53.26;101015.94;4935714;28;98065;-85
2022/06/01 01:09:45;;;;;;;1.00;1.00;;;;;;;12.31;53.26;100997.13;4948080;28;96622;-85
2022/06/01 01:12:12;;;;;;;1.30;1.20;;;;;;;12.36;53.28;101015.72;4946091;28;97350;-84
2022/06/01 01:14:43;;;;;;;1.20;1.20;;;;;;;12.42;53.37;101002.69;4942175;28;97411;-84
2022/06/01 01:17:10;;;;;;;1.83;1.63;;;;;;;12.40;53.12;100996.94;4943630;28;96731;-85
2022/06/01 01:19:46;;;;;;;1.30;1.30;;;;;;;12.43;54.01;101004.97;4946125;28;97193;-85
2022/06/01 01:22:34;;;;;;;3.70;1.87;;;;;;;12.43;53.22;100985.66;4946311;28;96618;-85
2022/06/01 01:25:06;;;;;;;1.60;1.50;;;;;;;12.42;53.57;100986.91;4947017;28;100867;-85
2022/06/01 01:27:31;;;;;;;1.00;1.00;;;;;;;12.38;53.24;100991.16;4945498;28;98160;-84
2022/06/01 01:29:57;;;;;;;5.00;1.83;;;;;;;12.37;53.45;100986.88;4937053;28;97193;-84
2022/06/01 01:32:22;;;;;;;1.07;1.07;;;;;;;12.39;53.27;100973.34;4946433;28;97289;-85
2022/06/01 01:34:48;;;;;;;1.73;1.50;;;;;;;12.39;53.41;100985.13;4946105;28;97776;-84
2022/06/01 01:37:24;;;;;;;1.40;1.23;;;;;;;12.41;53.64;100973.59;4943766;28;98945;-84
2022/06/01 01:39:52;;;;;;;1.03;1.03;;;;;;;12.41;53.55;100968.84;4934327;28;96777;-84
2022/06/01 01:42:19;;;;;;;1.40;1.30;;;;;;;12.42;53.55;100969.59;4923318;28;97302;-84
2022/06/01 01:44:57;;;;;;;1.27;1.27;;;;;;;12.46;54.28;100967.34;4944575;28;97028;-84
2022/06/01 01:47:22;;;;;;;1.30;1.20;;;;;;;12.45;53.61;100968.59;4935221;28;97927;-85
2022/06/01 01:49:48;;;;;;;1.53;1.43;;;;;;;12.45;53.60;100960.31;4941038;28;97295;-82
2022/06/01 01:52:17;;;;;;;1.40;1.30;;;;;;;12.44;53.72;100950.53;4939129;28;97004;-85
2022/06/01 01:55:00;;;;;;;2.07;1.90;;;;;;;12.43;54.35;100949.00;4941009;28;98441;-85
2022/06/01 01:57:53;;;;;;;1.60;1.50;;;;;;;12.40;54.63;100956.31;4928685;28;96973;-84
2022/06/01 02:00:29;;;;;;;1.73;1.60;;;;;;;12.40;54.38;100950.03;4937149;28;96874;-85
2022/06/01 02:02:54;;;;;;;1.53;1.43;;;;;;;12.35;53.74;100959.03;4940847;28;96857;-84
2022/06/01 02:08:38;;;;;;;0.90;0.90;;;;;;;12.31;53.97;100956.53;4940350;28;101796;-84
2022/06/01 02:14:12;;;;;;;1.47;1.20;;;;;;;12.33;54.24;100983.59;4939169;28;96928;-85
2022/06/01 02:16:43;;;;;;;1.23;1.13;;;;;;;12.41;54.35;100976.34;4937140;28;97061;-85
2022/06/01 02:19:15;;;;;;;1.30;1.30;;;;;;;12.46;54.34;100981.13;4931902;28;98149;-85
2022/06/01 02:21:41;;;;;;;1.27;1.20;;;;;;;12.49;54.16;100974.63;4935261;28;97873;-84
2022/06/01 02:24:06;;;;;;;1.47;1.37;;;;;;;12.50;54.22;100968.59;4941543;28;97045;-86
2022/06/01 02:26:33;;;;;;;1.20;1.20;;;;;;;12.60;54.07;100974.66;4941275;28;98397;-84
2022/06/01 02:29:06;;;;;;;1.40;1.40;;;;;;;12.62;54.56;100966.66;4937763;28;96670;-85
2022/06/01 02:31:34;;;;;;;1.50;1.50;;;;;;;12.64;54.20;100966.91;4935247;28;96931;-84
2022/06/01 02:34:03;;;;;;;1.10;1.10;;;;;;;12.66;54.16;100983.72;4944127;28;97392;-84
2022/06/01 02:36:30;;;;;;;1.30;1.20;;;;;;;12.65;54.22;100982.19;4940936;28;97562;-84
2022/06/01 02:38:58;;;;;;;1.23;1.13;;;;;;;12.64;54.36;100980.69;4945881;28;98465;-84
2022/06/01 02:44:07;;;;;;;1.73;1.53;;;;;;;12.63;54.43;100973.66;4938425;28;96635;-84
2022/06/01 02:46:33;;;;;;;1.67;1.57;;;;;;;12.63;54.55;100990.22;4941654;28;98674;-84
2022/06/01 02:49:00;;;;;;;1.50;1.40;;;;;;;12.60;54.44;100971.91;4946182;28;97911;-85
2022/06/01 02:51:26;;;;;;;1.67;1.60;;;;;;;12.59;54.36;100978.66;4947425;28;96581;-84
2022/06/01 02:53:51;;;;;;;1.67;1.57;;;;;;;12.57;54.70;100992.22;4941252;28;96950;-84
2022/06/01 02:56:16;;;;;;;1.70;1.60;;;;;;;12.56;54.56;100976.88;4939227;28;97975;-84
2022/06/01 02:58:42;;;;;;;1.57;1.40;;;;;;;12.59;54.54;100984.94;4946257;28;98273;-84
2022/06/01 03:01:08;;;;;;;1.17;1.17;;;;;;;12.54;54.64;100996.72;4947371;28;96958;-85
2022/06/01 03:03:35;;;;;;;1.67;1.57;;;;;;;12.51;54.69;100972.13;4939838;28;98488;-84
2022/06/01 03:06:01;;;;;;;1.40;1.30;;;;;;;12.52;54.90;100973.63;4929726;28;98782;-84
2022/06/01 03:08:26;;;;;;;1.90;1.80;;;;;;;12.54;54.80;100977.41;4933447;28;97644;-85
2022/06/01 03:10:52;;;;;;;1.10;1.10;;;;;;;12.60;54.83;100982.94;4936282;28;96615;-84
2022/06/01 03:13:20;;;;;;;1.40;1.40;;;;;;;12.61;54.75;100970.63;4934402;28;97397;-84
2022/06/01 03:15:46;;;;;;;1.60;1.50;;;;;;;12.65;54.72;100979.44;4937815;28;103028;-84
2022/06/01 03:18:11;;;;;;;1.40;1.30;;;;;;;12.66;54.73;100983.72;4929905;28;97433;-85
2022/06/01 03:20:38;;;;;;;2.30;1.33;;;;;;;12.68;54.78;100998.53;4938165;28;96859;-85
2022/06/01 03:23:04;;;;;;;1.70;1.60;;;;;;;12.71;55.07;100980.94;4940908;28;97786;-85
2022/06/01 03:25:30;;;;;;;1.27;1.27;;;;;;;12.77;55.10;100983.72;4946830;28;96767;-85
2022/06/01 03:27:57;;;;;;;1.60;1.50;;;;;;;12.80;55.12;100988.25;4937837;28;97736;-85
2022/06/01 03:30:23;;;;;;;1.50;1.50;;;;;;;12.75;55.03;100986.25;4935349;28;96911;-86
2022/06/01 03:32:50;;;;;;;1.37;1.37;;;;;;;12.67;55.09;100993.47;4946613;28;97011;-85
2022/06/01 03:35:19;;;;;;;1.60;1.50;;;;;;;12.70;55.47;100962.13;4945377;28;98134;-85
2022/06/01 03:37:45;;;;;;;1.50;1.40;;;;;;;12.69;55.52;100966.91;4935132;28;99793;-86
2022/06/01 03:40:12;;;;;;;1.40;1.40;;;;;;;12.72;55.54;100981.72;4943814;28;97027;-85
2022/06/01 03:42:38;;;;;;;1.77;1.40;;;;;;;12.76;55.33;100976.69;4937914;28;97456;-86
2022/06/01 03:47:50;;;;;;;1.63;1.53;;;;;;;12.75;55.49;100969.69;4936193;28;101661;-86
2022/06/01 03:50:17;;;;;;;1.70;1.60;;;;;;;12.75;55.65;100969.69;4937580;28;96558;-86
2022/06/01 03:52:45;;;;;;;1.73;1.63;;;;;;;12.76;55.57;100969.16;4942466;28;97019;-85
2022/06/01 03:55:12;;;;;;;2.63;1.83;;;;;;;12.74;55.64;100962.63;4937316;28;99799;-85
2022/06/01 03:57:38;;;;;;;1.63;1.53;;;;;;;12.80;55.91;100985.47;4939562;28;97047;-85
2022/06/01 04:00:09;;;;;;;2.13;2.03;;;;;;;12.81;55.97;100981.47;4939330;28;97082;-87
2022/06/01 04:02:36;;;;;;;1.83;1.73;;;;;;;12.83;55.87;100981.72;4938160;28;96988;-85
2022/06/01 04:05:03;;;;;;;1.80;1.70;;;;;;;12.84;55.78;100980.50;4933689;28;98555;-85
2022/06/01 04:07:28;;;;;;;1.90;1.80;;;;;;;12.82;55.95;100990.53;4933933;28;101918;-85
2022/06/01 04:09:54;;;;;;;1.90;1.80;;;;;;;12.88;55.97;100986.53;4939720;28;96780;-86
2022/06/01 04:12:19;;;;;;;1.93;1.83;;;;;;;12.89;56.01;100996.28;4932680;28;96756;-86
2022/06/01 04:14:45;;;;;;;1.53;1.30;;;;;;;12.90;55.82;100991.53;4943512;28;100197;-85
2022/06/01 04:17:10;;;;;;;2.10;2.00;;;;;;;12.91;56.05;100988.25;4942071;28;99686;-85
2022/06/01 04:19:36;;;;;;;2.10;2.00;;;;;;;12.93;56.04;101001.59;4943119;28;96857;-85
2022/06/01 04:22:02;;;;;;;1.60;1.50;;;;;;;12.94;56.14;100992.78;4927762;28;96926;-85
2022/06/01 04:24:31;;;;;;;2.10;2.00;;;;;;;12.96;56.35;100998.56;4941231;28;98237;-85
2022/06/01 04:26:56;;;;;;;2.03;1.93;;;;;;;12.97;56.23;101000.09;4944782;28;97923;-85
2022/06/01 04:29:22;;;;;;;2.77;2.60;;;;;;;13.00;56.18;100999.06;4943721;28;97314;-85
2022/06/01 04:31:49;;;;;;;2.10;2.00;;;;;;;13.02;56.20;101026.94;4929586;28;97105;-85
2022/06/01 04:34:16;;;;;;;2.07;1.97;;;;;;;13.05;56.22;101003.91;4934551;28;97939;-85
2022/06/01 04:36:44;;;;;;;2.40;2.30;;;;;;;13.02;56.45;101002.09;4946860;28;97161;-84
2022/06/01 04:39:10;;;;;;;2.20;2.10;;;;;;;13.08;56.45;101011.19;4931551;28;96867;-85
2022/06/01 04:41:37;;;;;;;2.40;2.30;;;;;;;13.16;56.60;101012.19;4941680;28;97066;-85
2022/06/01 04:44:04;;;;;;;2.40;2.30;;;;;;;13.21;56.49;101016.22;4935989;28;97037;-84
2022/06/01 04:46:29;;;;;;;2.87;2.57;;;;;;;13.27;56.48;101014.97;4940982;28;97359;-84
2022/06/01 04:48:54;;;;;;;2.40;2.27;;;;;;;13.34;56.28;101014.47;4917349;28;98501;-83
2022/06/01 04:51:20;;;;;;;2.30;2.17;;;;;;;13.34;56.42;100997.13;4938096;28;96901;-83
2022/06/01 04:53:46;;;;;;;2.60;2.50;;;;;;;13.45;56.40;101017.19;4942786;28;96825;-84
2022/06/01 04:56:11;;;;;;;3.50;2.63;;;;;;;13.50;56.56;101030.28;4940469;28;100164;-83
2022/06/01 04:58:38;;;;;;;2.83;2.63;;;;;;;13.54;56.64;101005.16;4946762;28;97171;-84
2022/06/01 05:01:03;;;;;;;3.60;2.60;;;;;;;13.61;56.42;101015.69;4944472;28;97476;-83
2022/06/01 05:03:29;;;;;;;2.83;2.73;;;;;;;13.68;56.42;101009.66;4940293;28;97961;-84
2022/06/01 05:05:54;;;;;;;2.00;1.90;;;;;;;13.72;56.46;101010.16;4944814;28;97142;-84
2022/06/01 05:08:20;;;;;;;2.73;2.53;;;;;;;13.75;56.56;101011.16;4946252;28;96898;-84
2022/06/01 05:10:45;;;;;;;2.87;2.70;;;;;;;13.76;56.62;101004.38;4944834;28;96543;-84
2022/06/01 05:13:12;;;;;;;2.67;2.43;;;;;;;13.80;56.63;101005.63;4943822;28;100210;-84
2022/06/01 05:15:45;;;;;;;2.50;2.33;;;;;;;13.83;56.94;101007.38;4930365;28;96808;-83
2022/06/01 05:18:11;;;;;;;2.83;2.57;;;;;;;13.86;56.74;101011.13;4934919;28;97105;-84
2022/06/01 05:20:36;;;;;;;3.10;2.90;;;;;;;13.88;56.86;101005.84;4946760;28;97025;-84
2022/06/01 05:23:02;;;;;;;5.80;3.43;;;;;;;13.89;57.01;101002.56;4948806;28;97722;-84
2022/06/01 05:25:27;;;;;;;3.03;2.83;;;;;;;13.94;56.86;101023.19;4941609;28;97653;-83
2022/06/01 05:27:52;;;;;;;3.20;3.00;;;;;;;14.00;56.82;101021.91;4939791;28;96933;-83
2022/06/01 05:30:18;;;;;;;3.20;3.00;;;;;;;14.07;57.03;101015.09;4942209;28;97049;-85
2022/06/01 05:32:43;;;;;;;3.43;3.20;;;;;;;14.16;56.98;101028.66;4945973;28;98940;-83
2022/06/01 05:35:09;;;;;;;3.27;3.03;;;;;;;14.20;56.97;101024.38;4937786;28;97642;-83
2022/06/01 05:37:34;;;;;;;2.77;2.57;;;;;;;14.29;57.08;101017.81;4943986;28;97002;-82
2022/06/01 05:40:00;;;;;;;3.50;3.30;;;;;;;14.38;56.78;101042.47;4941509;28;97255;-85
2022/06/01 05:42:25;;;;;;;4.13;3.70;;;;;;;14.48;56.68;101035.34;4947855;28;99146;-83
2022/06/01 05:44:52;;;;;;;3.77;3.47;;;;;;;14.50;56.57;101013.47;4951811;28;97253;-85
2022/06/01 05:47:18;;;;;;;3.37;3.17;;;;;;;14.63;56.44;101029.53;4933037;28;96873;-84
2022/06/01 05:49:43;;;;;;;7.10;3.50;;;;;;;14.71;56.44;101028.47;4938995;28;96713;-84
2022/06/01 05:52:09;;;;;;;3.20;3.00;;;;;;;14.76;56.43;101032.47;4930835;28;97317;-83
2022/06/01 05:54:35;;;;;;;5.07;4.20;;;;;;;14.83;56.35;101026.41;4947093;28;97102;-83
2022/06/01 05:57:01;;;;;;;3.77;3.50;;;;;;;14.88;56.18;101039.44;4946980;28;96994;-83
2022/06/01 05:59:26;;;;;;;4.17;3.87;;;;;;;14.93;56.21;101038.66;4942803;28;98289;-81
2022/06/01 06:01:51;;;;;;;4.00;2.97;;;;;;;14.96;56.13;101032.84;4940720;28;98130;-84
2022/06/01 06:04:17;;;;;;;4.13;3.73;;;;;;;15.00;56.23;101030.56;4947867;28;97362;-86
2022/06/01 06:06:43;;;;;;;3.77;3.57;;;;;;;15.01;56.19;101057.00;4943357;28;97353;-84
2022/06/01 06:09:09;;;;;;;3.97;3.60;;;;;;;15.01;56.15;101043.16;4937279;28;97321;-84
2022/06/01 06:11:38;;;;;;;5.00;4.60;;;;;;;15.06;56.13;101051.94;4940759;28;98112;-84
2022/06/01 06:14:04;;;;;;;3.90;3.50;;;;;;;15.08;56.10;101058.47;4934792;28;98671;-83
2022/06/01 06:16:42;;;;;;;4.83;4.43;;;;;;;15.15;56.00;101046.09;4936506;28;97161;-84
2022/06/01 06:19:09;;;;;;;5.07;4.57;;;;;;;15.29;56.10;101050.53;4941225;28;96842;-83
2022/06/01 06:21:35;;;;;;;4.10;3.70;;;;;;;15.44;55.96;101054.47;4929786;28;96914;-84
2022/06/01 06:24:10;;;;;;;4.70;4.30;;;;;;;15.58;55.66;101069.22;4927352;28;96611;-84
2022/06/01 06:26:37;;;;;;;4.40;4.10;;;;;;;15.69;55.69;101058.03;4943218;28;97230;-84
2022/06/01 06:29:05;;;;;;;5.23;4.60;;;;;;;15.77;55.53;101045.84;4938550;28;96856;-83
2022/06/01 06:31:31;;;;;;;4.90;4.50;;;;;;;15.84;55.42;101050.06;4939961;28;97319;-83
2022/06/01 06:33:56;;;;;;;5.03;4.63;;;;;;;15.94;55.39;101042.94;4929891;28;98445;-84
2022/06/01 06:36:22;;;;;;;6.37;4.57;;;;;;;16.03;55.31;101044.59;4934498;28;96880;-83
2022/06/01 06:38:48;;;;;;;5.17;4.67;;;;;;;16.13;55.19;101052.06;4944352;28;96697;-84
2022/06/01 06:41:13;;;;;;;4.90;4.50;;;;;;;16.22;55.17;101059.28;4931871;28;99991;-84
2022/06/01 06:43:40;;;;;;;6.40;5.23;;;;;;;16.29;55.08;101051.09;4935216;28;96993;-83
2022/06/01 06:46:15;;;;;;;6.70;5.60;;;;;;;16.42;55.05;101069.91;4941600;28;97265;-82
2022/06/01 06:48:43;;;;;;;5.70;5.07;;;;;;;16.49;54.72;101055.41;4951623;28;96980;-84
2022/06/01 06:51:09;;;;;;;5.70;5.20;;;;;;;16.55;54.64;101061.72;4935947;28;97656;-83
2022/06/01 06:53:34;;;;;;;5.67;4.90;;;;;;;16.66;54.67;101058.03;4940505;28;99392;-84
2022/06/01 06:56:00;;;;;;;7.00;4.93;;;;;;;16.77;54.52;101060.66;4946135;28;96922;-83
2022/06/01 06:58:26;;;;;;;5.67;5.20;;;;;;;16.84;54.53;101057.31;4944239;28;96931;-84
2022/06/01 07:00:52;;;;;;;5.40;4.90;;;;;;;16.89;54.35;101064.78;4928218;28;98718;-83
2022/06/01 07:03:18;;;;;;;9.70;4.80;;;;;;;16.91;54.31;101054.66;4933569;28;99838;-84
2022/06/01 07:08:29;;;;;;;4.90;4.50;;;;;;;17.17;54.04;101065.91;4936080;28;97284;-84
2022/06/01 07:10:55;;;;;;;5.17;4.77;;;;;;;17.25;53.88;101082.75;4944736;28;98646;-85
2022/06/01 07:13:22;;;;;;;5.33;4.83;;;;;;;17.36;53.69;101065.88;4922646;28;98414;-85
2022/06/01 07:15:48;;;;;;;5.07;4.60;;;;;;;17.45;53.55;101070.31;4935363;28;96915;-83
2022/06/01 07:18:13;;;;;;;4.90;4.50;;;;;;;17.51;53.29;101068.19;4932448;28;97134;-84
2022/06/01 07:20:39;;;;;;;5.07;4.67;;;;;;;17.52;53.16;101075.25;4942260;28;97867;-82
2022/06/01 07:23:06;;;;;;;7.00;5.20;;;;;;;17.55;53.05;101091.66;4942076;28;98233;-84
2022/06/01 07:25:31;;;;;;;5.07;4.40;;;;;;;17.58;53.06;101076.66;4941520;28;97310;-83
2022/06/01 07:27:57;;;;;;;5.43;4.97;;;;;;;17.58;52.86;101082.22;4945319;28;97130;-84
2022/06/01 07:30:23;;;;;;;5.27;4.87;;;;;;;17.58;52.74;101098.19;4932563;28;99622;-83
2022/06/01 07:32:49;;;;;;;5.53;5.07;;;;;;;17.61;52.83;101081.19;4941067;28;98624;-84
2022/06/01 07:35:16;;;;;;;5.43;4.40;;;;;;;17.62;52.84;101084.72;4937658;28;97256;-82
2022/06/01 07:43:11;;;;;;;5.30;4.80;;;;;;;17.57;52.84;101085.56;4940527;28;101259;-85
2022/06/01 07:45:43;;;;;;;7.33;4.37;;;;;;;17.61;52.66;101075.63;4937262;28;96488;-83
2022/06/01 07:48:09;;;;;;;5.43;4.57;;;;;;;17.65;52.40;101076.03;4945910;28;97256;-83
2022/06/01 07:50:35;;;;;;;5.27;4.60;;;;;;;17.70;52.54;101083.56;4948749;28;98951;-84
2022/06/01 07:53:03;;;;;;;5.13;4.70;;;;;;;17.76;52.43;101092.56;4948168;28;98610;-84
2022/06/01 07:55:29;;;;;;;6.10;5.60;;;;;;;17.82;52.42;101084.84;4936020;28;96977;-85
2022/06/01 07:57:54;;;;;;;6.47;5.40;;;;;;;17.85;52.17;101091.41;4944335;28;96958;-83
2022/06/01 08:00:20;;;;;;;4.73;4.20;;;;;;;17.88;52.11;101088.31;4939401;28;96867;-84
2022/06/01 08:02:46;;;;;;;5.53;4.40;;;;;;;17.92;52.09;101093.56;4948068;28;96743;-83
2022/06/01 08:05:14;;;;;;;3.90;3.60;;;;;;;18.01;51.79;101087.59;4949390;28;97659;-83
2022/06/01 08:07:40;;;;;;;4.93;4.50;;;;;;;18.11;51.47;101099.06;4944088;28;96803;-83
2022/06/01 08:10:07;;;;;;;4.77;4.47;;;;;;;18.24;51.57;101090.72;4944853;28;100651;-85
2022/06/01 08:15:19;;;;;;;4.60;4.10;;;;;;;18.40;51.29;101086.84;4945346;28;96968;-84
2022/06/01 08:17:46;;;;;;;4.33;4.00;;;;;;;18.53;51.05;101100.81;4947011;28;97211;-84
2022/06/01 08:20:12;;;;;;;3.60;3.30;;;;;;;18.63;50.87;101085.16;4939521;28;99201;-85
2022/06/01 08:22:38;;;;;;;3.57;3.37;;;;;;;18.76;50.57;101101.13;4947804;28;96868;-84
2022/06/01 08:25:05;;;;;;;4.60;4.30;;;;;;;18.81;50.05;101111.38;4941941;28;97241;-85
2022/06/01 08:27:30;;;;;;;3.97;3.67;;;;;;;18.79;50.27;101100.03;4944376;28;96869;-86
2022/06/01 08:29:56;;;;;;;3.83;3.53;;;;;;;18.81;49.97;101103.00;4944781;28;98674;-85
2022/06/01 08:32:22;;;;;;;3.77;3.50;;;;;;;18.85;50.17;101109.03;4942584;28;97314;-84
2022/06/01 08:34:48;;;;;;;4.03;3.73;;;;;;;18.92;50.15;101097.19;4941259;28;97535;-85
2022/06/01 08:37:13;;;;;;;4.13;3.83;;;;;;;18.92;49.68;101111.16;4944835;28;97063;-88
2022/06/01 08:39:38;;;;;;;3.77;3.43;;;;;;;18.87;49.63;101104.41;4939554;28;100129;-84
2022/06/01 08:42:05;;;;;;;4.00;3.70;;;;;;;18.88;49.66;101111.50;4935195;28;96991;-83
2022/06/01 08:44:35;;;;;;;4.07;3.70;;;;;;;18.90;49.62;101108.91;4943396;28;96717;-85
2022/06/01 08:47:10;;;;;;;3.40;3.10;;;;;;;18.93;48.86;101112.66;4939778;28;96918;-83
2022/06/01 08:49:37;;;;;;;3.70;3.50;;;;;;;18.89;49.26;101115.78;4954854;28;102461;-85
2022/06/01 08:52:04;;;;;;;3.37;3.07;;;;;;;18.84;49.45;101133.38;4942724;28;98369;-83
2022/06/01 08:54:30;;;;;;;3.23;2.93;;;;;;;18.82;49.48;101116.44;4944633;28;96689;-82
2022/06/01 08:57:01;;;;;;;3.53;3.33;;;;;;;18.80;49.25;101124.59;4936397;28;97115;-83
2022/06/01 09:00:06;;;;;;;3.27;2.87;;;;;;;18.83;49.08;101111.63;4932838;28;98233;-84
2022/06/01 09:03:08;;;;;;;3.07;2.87;;;;;;;18.92;48.94;101111.16;4932661;28;100451;-85
2022/06/01 09:06:17;;;;;;;3.43;3.13;;;;;;;18.97;48.95;101105.47;4940054;28;97638;-83
2022/06/01 09:08:55;;;;;;;3.70;3.50;;;;;;;19.01;48.89;101105.13;4940820;28;96784;-84
2022/06/01 09:11:28;;;;;;;3.80;3.50;;;;;;;19.02;49.27;101118.53;4947458;28;100024;-84
2022/06/01 09:14:16;;;;;;;3.90;3.60;;;;;;;19.06;48.91;101110.59;4939874;28;99579;-84
2022/06/01 09:16:46;;;;;;;4.73;4.33;;;;;;;19.05;49.39;101119.47;4940934;28;96801;-84
2022/06/01 09:19:20;;;;;;;4.50;3.50;;;;;;;19.03;49.14;101130.44;4946336;28;97095;-84
2022/06/01 09:24:48;;;;;;;3.97;3.60;;;;;;;19.13;49.45;101123.84;4948225;28;99995;-83
2022/06/01 09:27:15;;;;;;;3.43;3.17;;;;;;;19.19;49.23;101126.53;4936808;28;96670;-85
2022/06/01 09:29:51;;;;;;;3.37;3.07;;;;;;;19.24;48.77;101123.59;4945931;28;96887;-85
2022/06/01 09:32:28;;;;;;;3.00;2.80;;;;;;;19.34;48.33;101124.69;4937742;28;100899;-86
2022/06/01 09:34:57;;;;;;;3.37;3.17;;;;;;;19.40;48.72;101125.31;4921054;28;103032;-86
2022/06/01 09:37:31;;;;;;;3.30;3.00;;;;;;;19.44;48.62;101134.09;4938395;28;97167;-84
2022/06/01 09:40:00;;;;;;;2.70;2.50;;;;;;;19.50;48.40;101131.19;4938930;28;97290;-84
2022/06/01 09:42:33;;;;;;;2.83;2.63;;;;;;;19.61;48.27;101138.53;4946413;28;97611;-84
2022/06/01 09:45:00;;;;;;;2.17;2.07;;;;;;;19.86;48.18;101118.09;4938978;28;103051;-85
2022/06/01 09:47:31;;;;;;;2.00;1.90;;;;;;;20.22;47.23;101114.69;4937127;28;96684;-84
2022/06/01 09:49:59;;;;;;;2.50;2.40;;;;;;;20.43;47.17;101107.75;4940083;28;97027;-84
2022/06/01 09:52:32;;;;;;;2.53;2.33;;;;;;;20.53;46.39;101105.94;4944664;28;96637;-84
2022/06/01 09:55:19;;;;;;;2.40;2.20;;;;;;;20.65;45.49;101107.13;4947173;28;99688;-86
2022/06/01 09:57:46;;;;;;;1.70;1.60;;;;;;;20.76;46.55;101104.00;4942500;28;96607;-84
2022/06/01 10:06:30;;;;;;;2.00;1.90;;;;;;;21.07;44.41;101095.75;4935105;28;96938;-85
2022/06/01 10:09:19;;;;;;;3.20;1.70;;;;;;;21.17;44.43;101096.69;4941048;28;97214;-85
2022/06/01 10:11:48;;;;;;;1.63;1.53;;;;;;;21.26;45.33;101096.16;4937082;28;97336;-85
2022/06/01 10:14:31;;;;;;;1.77;1.67;;;;;;;21.34;44.62;101099.75;4949581;28;98915;-85
2022/06/01 10:17:00;;;;;;;2.10;2.00;;;;;;;21.37;45.04;101104.22;4941423;28;102567;-84
2022/06/01 10:19:31;;;;;;;1.97;1.87;;;;;;;21.42;44.46;101101.25;4935966;28;96926;-85
2022/06/01 10:22:18;;;;;;;2.00;1.90;;;;;;;21.41;44.78;101104.59;4941326;28;96733;-83
2022/06/01 10:24:47;;;;;;;1.70;1.60;;;;;;;21.38;43.37;101109.25;4942553;28;102741;-86
2022/06/01 10:27:13;;;;;;;2.40;2.30;;;;;;;21.47;44.46;101096.78;4943359;28;98611;-85
2022/06/01 10:29:45;;;;;;;2.20;2.00;;;;;;;21.45;44.17;101088.19;4936398;28;97180;-85
2022/06/01 10:32:42;;;;;;;2.13;1.93;;;;;;;21.51;43.45;101099.97;4938929;28;96892;-86
2022/06/01 10:35:37;;;;;;;1.90;1.80;;;;;;;21.36;43.65;101091.53;4934320;28;102139;-83
2022/06/01 10:38:24;;;;;;;1.47;1.47;;;;;;;21.22;44.32;101093.00;4926073;28;100772;-88
2022/06/01 10:41:14;;;;;;;1.20;1.20;;;;;;;21.04;43.12;101110.84;4943688;28;96766;-90
2022/06/01 10:44:04;;;;;;;2.60;2.40;;;;;;;20.81;43.03;101117.09;4937809;28;96936;-85
2022/06/01 10:46:51;;;;;;;2.07;1.90;;;;;;;20.69;44.25;101109.56;4938968;28;102597;-84
2022/06/01 10:49:22;;;;;;;4.30;1.70;;;;;;;20.68;44.15;101113.66;4939839;28;98635;-84
2022/06/01 10:52:13;;;;;;;2.50;2.30;;;;;;;20.74;44.05;101114.25;4940676;28;96943;-85
2022/06/01 10:54:46;;;;;;;2.00;1.90;;;;;;;20.72;43.64;101123.19;4939810;28;97100;-89
2022/06/01 10:57:18;;;;;;;1.73;1.53;;;;;;;20.65;43.94;101125.94;4935000;28;97122;-84
2022/06/01 10:59:44;;;;;;;1.67;1.57;;;;;;;20.72;44.76;101114.06;4939275;28;97337;-84
2022/06/01 11:02:25;;;;;;;1.70;1.60;;;;;;;20.81;43.86;101111.50;4942592;28;96886;-86
2022/06/01 11:05:09;;;;;;;2.50;2.30;;;;;;;21.00;43.49;101122.38;4943972;28;97034;-85
2022/06/01 11:07:41;;;;;;;2.03;1.93;;;;;;;21.10;44.38;101122.63;4932140;28;102395;-85
2022/06/01 11:10:06;;;;;;;2.20;1.97;;;;;;;21.30;44.13;101118.94;4936053;28;102633;-86
2022/06/01 11:12:56;;;;;;;1.93;1.83;;;;;;;21.33;43.25;101112.25;4927109;28;96809;-86
2022/06/01 11:15:30;;;;;;;2.10;1.90;;;;;;;21.33;43.59;101118.59;4944542;28;97090;-87
2022/06/01 11:18:17;;;;;;;2.37;2.20;;;;;;;21.48;43.09;101109.47;4937787;28;97325;-84
2022/06/01 11:20:45;;;;;;;2.27;2.07;;;;;;;21.63;43.62;101110.25;4944732;28;96741;-85
2022/06/01 11:23:32;;;;;;;2.23;1.90;;;;;;;21.62;43.45;101102.41;4940842;28;97012;-86
2022/06/01 11:26:31;;;;;;;2.30;2.10;;;;;;;21.45;42.61;101104.97;4938160;28;97051;-83
2022/06/01 11:29:22;;;;;;;2.67;1.83;;;;;;;21.37;43.29;101102.19;4931756;28;102759;-83
2022/06/01 11:31:52;;;;;;;1.70;1.60;;;;;;;21.31;43.55;101104.41;4940805;28;100121;-84
2022/06/01 11:34:30;;;;;;;2.50;2.20;;;;;;;21.52;43.30;101098.63;4929722;28;97191;-86
2022/06/01 11:37:03;;;;;;;1.60;1.50;;;;;;;21.83;42.79;101105.78;4939687;28;97047;-87
2022/06/01 11:39:34;;;;;;;1.90;1.80;;;;;;;22.08;42.17;101086.34;4946449;28;99778;-84
2022/06/01 11:42:14;;;;;;;1.70;1.60;;;;;;;22.26;42.36;101093.59;4938907;28;97303;-85
2022/06/01 11:44:48;;;;;;;2.50;1.50;;;;;;;22.32;41.93;101089.28;4944689;28;97231;-84
2022/06/01 11:47:20;;;;;;;1.60;1.50;;;;;;;22.33;41.90;101082.38;4942375;28;97678;-83
2022/06/01 11:50:26;;;;;;;1.37;1.33;;;;;;;22.44;40.90;101086.09;4933146;28;101963;-84
2022/06/01 11:53:01;;;;;;;1.50;1.40;;;;;;;22.19;41.37;101083.16;4922234;28;100236;-84
2022/06/01 11:55:26;;;;;;;2.03;1.50;;;;;;;21.93;42.30;101092.72;4937801;28;97024;-85
2022/06/01 11:58:05;;;;;;;1.90;1.70;;;;;;;21.70;41.42;101086.34;4942570;28;96962;-85
2022/06/01 12:00:30;;;;;;;1.80;1.70;;;;;;;21.47;42.64;101097.50;4943994;28;101129;-86
2022/06/01 12:03:20;;;;;;;1.90;1.80;;;;;;;21.24;42.71;101107.19;4949926;28;97208;-85
2022/06/01 12:06:03;;;;;;;1.67;1.57;;;;;;;20.97;42.62;101106.69;4943802;28;97322;-87
2022/06/01 12:08:37;;;;;;;1.73;1.63;;;;;;;20.84;43.29;101098.44;4936336;28;96812;-84